createdAt,value
2023-02-25T00:00:24.344Z,5.93
2023-02-25T00:03:49.586Z,5.99
2023-02-25T00:07:14.811Z,5.99
2023-02-25T00:10:40.084Z,5.92
2023-02-25T00:14:05.314Z,5.88
2023-02-25T00:17:30.532Z,5.76
2023-02-25T00:20:55.775Z,5.63
2023-02-25T00:24:21.026Z,5.51
2023-02-25T00:27:46.304Z,5.38
2023-02-25T00:31:11.672Z,5.22
2023-02-25T00:34:36.762Z,5.13
2023-02-25T00:38:13.962Z,5.1
2023-02-25T00:41:27.250Z,5.06
2023-02-25T00:44:52.567Z,5
2023-02-25T00:48:17.797Z,4.99
2023-02-25T00:51:43.039Z,4.96
2023-02-25T00:55:08.273Z,5
2023-02-25T00:58:33.534Z,5.08
2023-02-25T01:01:58.840Z,5.13
2023-02-25T01:05:24.054Z,5.14
2023-02-25T01:08:49.282Z,5.13
2023-02-25T01:12:14.528Z,5.13
2023-02-25T01:15:39.811Z,5.19
2023-02-25T01:19:05.032Z,5.27
2023-02-25T01:22:30.263Z,5.34
2023-02-25T01:25:55.505Z,5.33
2023-02-25T01:29:20.786Z,5.35
2023-02-25T01:32:46.064Z,5.34
2023-02-25T01:36:11.310Z,5.39
2023-02-25T01:39:36.562Z,5.46
2023-02-25T01:43:01.836Z,5.46
2023-02-25T01:46:27.108Z,5.52
2023-02-25T01:49:52.347Z,5.57
2023-02-25T01:53:17.617Z,5.59
2023-02-25T01:56:42.869Z,5.55
2023-02-25T02:00:08.128Z,5.53
2023-02-25T02:03:33.362Z,5.45
2023-02-25T02:06:58.634Z,5.36
2023-02-25T02:10:23.916Z,5.34
2023-02-25T02:13:49.089Z,5.31
2023-02-25T02:17:14.328Z,5.23
2023-02-25T02:20:39.571Z,5.18
2023-02-25T02:24:04.880Z,5.17
2023-02-25T02:27:30.128Z,5.18
2023-02-25T02:30:55.413Z,5.18
2023-02-25T02:34:20.614Z,5.14
2023-02-25T02:37:45.874Z,5.12
2023-02-25T02:41:11.139Z,5.13
2023-02-25T02:44:36.411Z,5.17
2023-02-25T02:48:01.643Z,5.19
2023-02-25T02:51:26.901Z,5.25
2023-02-25T02:54:52.132Z,5.26
2023-02-25T02:58:17.382Z,5.26
2023-02-25T03:01:42.658Z,5.26
2023-02-25T03:05:07.901Z,5.28
2023-02-25T03:08:33.125Z,5.3
2023-02-25T03:11:58.377Z,5.29
2023-02-25T03:15:23.633Z,5.27
2023-02-25T03:18:48.881Z,5.24
2023-02-25T03:22:14.123Z,5.24
2023-02-25T03:25:39.398Z,5.28
2023-02-25T03:29:04.614Z,5.35
2023-02-25T03:32:29.933Z,5.44
2023-02-25T03:35:55.119Z,5.5
2023-02-25T03:39:20.322Z,5.5
2023-02-25T03:42:45.560Z,5.51
2023-02-25T03:46:10.828Z,5.49
2023-02-25T03:49:36.039Z,5.5
2023-02-25T03:53:01.310Z,5.47
2023-02-25T03:56:26.533Z,5.42
2023-02-25T03:59:51.792Z,5.34
2023-02-25T04:03:17.604Z,5.28
2023-02-25T04:06:42.872Z,5.25
2023-02-25T04:10:08.178Z,5.25
2023-02-25T04:13:33.356Z,5.24
2023-02-25T04:16:58.614Z,5.25
2023-02-25T04:20:23.893Z,5.24
2023-02-25T04:23:49.132Z,5.22
2023-02-25T04:27:14.384Z,5.23
2023-02-25T04:30:39.635Z,5.25
2023-02-25T04:34:04.818Z,5.29
2023-02-25T04:37:30.069Z,5.3
2023-02-25T04:40:55.321Z,5.33
2023-02-25T04:44:20.611Z,5.33
2023-02-25T04:47:45.835Z,5.28
2023-02-25T04:51:11.089Z,5.23
2023-02-25T04:54:36.302Z,5.22
2023-02-25T04:58:01.554Z,5.21
2023-02-25T05:01:26.873Z,5.18
2023-02-25T05:04:52.071Z,5.18
2023-02-25T05:08:17.290Z,5.17
2023-02-25T05:11:42.501Z,5.12
2023-02-25T05:15:07.720Z,5.08
2023-02-25T05:18:32.990Z,5
2023-02-25T05:21:58.231Z,4.94
2023-02-25T05:25:23.447Z,4.87
2023-02-25T05:28:48.678Z,4.84
2023-02-25T05:32:14.085Z,4.84
2023-02-25T05:35:39.215Z,4.88
2023-02-25T05:39:04.407Z,4.86
2023-02-25T05:42:29.640Z,4.8
2023-02-25T05:45:54.895Z,4.8
2023-02-25T05:49:20.157Z,4.8
2023-02-25T05:52:45.418Z,4.84
2023-02-25T05:56:10.610Z,4.83
2023-02-25T05:59:35.835Z,4.87
2023-02-25T06:03:01.163Z,4.87
2023-02-25T06:06:26.434Z,4.92
2023-02-25T06:09:51.569Z,4.96
2023-02-25T06:13:16.819Z,4.95
2023-02-25T06:16:42.144Z,4.92
2023-02-25T06:20:07.287Z,4.83
2023-02-25T06:23:32.519Z,4.74
2023-02-25T06:26:57.773Z,4.68
2023-02-25T06:30:22.983Z,4.62
2023-02-25T06:33:48.335Z,4.54
2023-02-25T06:37:15.458Z,4.52
2023-02-25T06:40:38.996Z,4.54
2023-02-25T06:44:04.330Z,4.52
2023-02-25T06:47:29.583Z,4.55
2023-02-25T06:50:54.839Z,4.46
2023-02-25T06:54:20.084Z,4.31
2023-02-25T06:57:45.379Z,4.19
2023-02-25T07:01:10.730Z,4.1
2023-02-25T07:04:35.979Z,4.08
2023-02-25T07:08:01.229Z,4.08
2023-02-25T07:11:26.497Z,4.1
2023-02-25T07:14:51.815Z,4.18
2023-02-25T07:18:17.162Z,4.28
2023-02-25T07:21:43.146Z,4.34
2023-02-25T07:25:08.488Z,4.4
2023-02-25T07:28:33.724Z,4.38
2023-02-25T07:31:59.251Z,4.39
2023-02-25T07:35:24.467Z,4.39
2023-02-25T07:38:49.866Z,4.41
2023-02-25T07:42:15.131Z,4.48
2023-02-25T07:45:40.369Z,4.55
2023-02-25T07:49:05.611Z,4.62
2023-02-25T07:52:30.875Z,4.69
2023-02-25T07:55:57.038Z,4.74
2023-02-25T07:59:24.619Z,4.78
2023-02-25T08:02:49.900Z,4.87
2023-02-25T08:06:15.098Z,4.95
2023-02-25T08:09:40.899Z,5
2023-02-25T08:13:06.140Z,5.05
2023-02-25T08:16:31.367Z,5.1
2023-02-25T08:19:56.630Z,5.16
2023-02-25T08:23:21.874Z,5.16
2023-02-25T08:26:47.168Z,5.12
2023-02-25T08:30:12.400Z,5.12
2023-02-25T08:33:37.624Z,5.14
2023-02-25T08:37:02.843Z,5.14
2023-02-25T08:40:28.116Z,5.18
2023-02-25T08:43:53.388Z,5.17
2023-02-25T08:47:18.595Z,5.1
2023-02-25T08:50:43.870Z,5.1
2023-02-25T08:54:09.126Z,5.18
2023-02-25T08:57:34.350Z,5.18
2023-02-25T09:00:59.686Z,5.19
2023-02-25T09:04:24.883Z,5.21
2023-02-25T09:07:50.076Z,5.24
2023-02-25T09:11:15.325Z,5.26
2023-02-25T09:14:40.840Z,5.28
2023-02-25T09:18:06.664Z,5.41
2023-02-25T09:21:32.796Z,5.68
2023-02-25T09:24:58.016Z,5.79
2023-02-25T09:28:24.536Z,5.78
2023-02-25T09:31:48.568Z,5.74
2023-02-25T09:35:13.721Z,5.72
2023-02-25T09:38:38.934Z,5.65
2023-02-25T09:42:04.131Z,5.63
2023-02-25T09:45:29.436Z,5.7
2023-02-25T09:48:54.574Z,5.73
2023-02-25T09:52:19.811Z,5.77
2023-02-25T09:55:45.012Z,5.74
2023-02-25T09:59:10.285Z,5.63
2023-02-25T10:02:35.666Z,5.54
2023-02-25T10:06:00.726Z,5.41
2023-02-25T10:09:26.011Z,5.31
2023-02-25T10:12:51.181Z,5.24
2023-02-25T10:16:16.382Z,5.19
2023-02-25T10:19:41.621Z,5.14
2023-02-25T10:23:06.933Z,5.03
2023-02-25T10:26:32.197Z,4.98
2023-02-25T10:29:57.389Z,4.93
2023-02-25T10:33:22.722Z,4.94
2023-02-25T10:36:47.980Z,5
2023-02-25T10:40:13.196Z,4.98
2023-02-25T10:43:38.444Z,4.95
2023-02-25T10:47:03.653Z,4.93
2023-02-25T10:50:43.199Z,4.86
2023-02-25T10:53:54.029Z,4.87
2023-02-25T10:57:19.256Z,4.86
2023-02-25T11:00:44.484Z,4.88
2023-02-25T11:04:09.661Z,4.97
2023-02-25T11:07:34.872Z,4.96
2023-02-25T11:11:00.111Z,4.94
2023-02-25T11:14:25.300Z,4.92
2023-02-25T11:17:50.554Z,4.91
2023-02-25T11:21:15.726Z,4.95
2023-02-25T11:24:40.923Z,4.96
2023-02-25T11:28:06.124Z,4.96
2023-02-25T11:31:31.484Z,4.98
2023-02-25T11:34:56.606Z,4.89
2023-02-25T11:38:21.735Z,4.86
2023-02-25T11:41:46.980Z,4.94
2023-02-25T11:45:12.193Z,5
2023-02-25T11:48:37.417Z,4.98
2023-02-25T11:52:02.695Z,5.01
2023-02-25T11:55:27.898Z,5.12
2023-02-25T11:58:53.191Z,5.21
2023-02-25T12:02:18.378Z,5.22
2023-02-25T12:05:43.670Z,5.22
2023-02-25T12:09:08.874Z,5.17
2023-02-25T12:12:34.049Z,5.08
2023-02-25T12:15:59.345Z,5.06
2023-02-25T12:19:24.489Z,5.05
2023-02-25T12:22:49.709Z,5.01
2023-02-25T12:26:14.926Z,5.02
2023-02-25T12:29:40.113Z,5.1
2023-02-25T12:33:05.326Z,5.18
2023-02-25T12:36:30.554Z,5.18
2023-02-25T12:39:55.770Z,5.22
2023-02-25T12:43:21.042Z,5.24
2023-02-25T12:46:46.241Z,5.26
2023-02-25T12:50:11.474Z,5.23
2023-02-25T12:53:36.701Z,5.19
2023-02-25T12:57:01.910Z,5.18
2023-02-25T13:00:27.167Z,5.1
2023-02-25T13:03:54.389Z,5
2023-02-25T13:07:17.541Z,4.96
2023-02-25T13:10:42.788Z,4.96
2023-02-25T13:14:07.967Z,5.02
2023-02-25T13:17:33.192Z,5.07
2023-02-25T13:20:58.381Z,5.14
2023-02-25T13:24:23.563Z,5.26
2023-02-25T13:27:48.776Z,5.4
2023-02-25T13:31:13.984Z,5.45
2023-02-25T13:34:39.208Z,5.35
2023-02-25T13:38:04.396Z,5.25
2023-02-25T13:41:29.624Z,5.26
2023-02-25T13:44:54.811Z,5.17
2023-02-25T13:48:20.099Z,5.08
2023-02-25T13:51:45.322Z,5.04
2023-02-25T13:55:10.513Z,5.04
2023-02-25T13:58:35.734Z,5
2023-02-25T14:02:00.955Z,4.97
2023-02-25T14:05:26.156Z,5.04
2023-02-25T14:08:51.373Z,5.16
2023-02-25T14:12:16.558Z,5.27
2023-02-25T14:15:41.803Z,5.3
2023-02-25T14:19:06.988Z,5.27
2023-02-25T14:22:34.210Z,5.27
2023-02-25T14:25:57.474Z,5.26
2023-02-25T14:29:22.675Z,5.24
2023-02-25T15:04:32.517Z,1.38
2023-02-25T15:07:57.684Z,2.38
2023-02-25T15:11:23.554Z,2.66
2023-02-25T15:14:48.504Z,2.9
2023-02-25T15:18:13.747Z,3
2023-02-25T15:21:39.000Z,3.11
2023-02-25T15:25:04.183Z,3.24
2023-02-25T15:28:29.426Z,3.41
2023-02-25T15:31:54.732Z,3.57
2023-02-25T15:35:19.845Z,3.68
2023-02-25T15:38:45.096Z,3.72
2023-02-25T15:42:10.276Z,3.72
2023-02-25T15:45:35.491Z,3.77
2023-02-25T15:49:00.721Z,3.86
2023-02-25T15:52:25.942Z,3.92
2023-02-25T15:55:51.159Z,3.98
2023-02-25T15:59:16.393Z,3.99
2023-02-25T16:02:41.629Z,3.96
2023-02-25T16:06:06.924Z,3.85
2023-02-25T16:09:32.188Z,3.74
2023-02-25T16:12:57.436Z,3.77
2023-02-25T16:16:22.680Z,3.76
2023-02-25T16:19:47.830Z,3.54
2023-02-25T16:23:13.044Z,3.4
2023-02-25T16:26:38.316Z,3.28
2023-02-25T16:30:03.528Z,3.17
2023-02-25T16:33:28.737Z,3.03
2023-02-25T16:36:53.975Z,2.9
2023-02-25T16:40:19.202Z,2.87
2023-02-25T16:43:44.401Z,2.81
2023-02-25T16:47:09.645Z,2.77
2023-02-25T16:50:34.862Z,2.74
2023-02-25T16:54:00.136Z,2.75
2023-02-25T16:57:25.271Z,2.71
2023-02-25T17:00:51.004Z,2.69
2023-02-25T17:04:15.762Z,2.66
2023-02-25T17:07:40.931Z,2.71
2023-02-25T17:11:06.165Z,2.66
2023-02-25T17:14:31.495Z,2.58
2023-02-25T17:17:56.764Z,2.56
2023-02-25T17:21:22.009Z,2.51
2023-02-25T17:24:47.204Z,2.45
2023-02-25T17:28:12.511Z,2.45
2023-02-25T17:31:37.967Z,2.47
2023-02-25T17:35:03.295Z,2.49
2023-02-25T17:38:28.705Z,2.47
2023-02-25T17:41:53.951Z,2.47
2023-02-25T17:45:21.245Z,2.46
2023-02-25T17:48:44.485Z,2.38
2023-02-25T17:52:09.802Z,2.38
2023-02-25T17:55:35.202Z,2.34
2023-02-25T17:59:00.470Z,2.36
2023-02-25T18:02:25.778Z,2.34
2023-02-25T18:05:51.054Z,2.32
2023-02-25T18:09:16.336Z,2.24
2023-02-25T18:12:42.536Z,2.15
2023-02-25T18:16:07.817Z,2.11
2023-02-25T18:19:33.079Z,2.12
2023-02-25T18:22:58.372Z,2.16
2023-02-25T18:26:23.915Z,2.19
2023-02-25T18:29:48.941Z,2.16
2023-02-25T18:33:14.127Z,2.12
2023-02-25T18:36:39.419Z,2.1
2023-02-25T18:40:04.700Z,2.07
2023-02-25T18:43:29.986Z,2.06
2023-02-25T18:46:55.307Z,1.98
2023-02-25T18:50:20.585Z,1.94
2023-02-25T18:53:45.853Z,1.86
2023-02-25T18:57:11.119Z,1.85
2023-02-25T19:00:36.422Z,1.88
2023-02-25T19:04:01.707Z,1.93
2023-02-25T19:07:26.962Z,1.97
2023-02-25T19:10:52.237Z,1.93
2023-02-25T19:14:17.554Z,1.9
2023-02-25T19:17:42.771Z,1.9
2023-02-25T19:21:08.076Z,1.95
2023-02-25T19:24:33.370Z,1.96
2023-02-25T19:27:58.649Z,1.95
2023-02-25T19:31:23.943Z,1.96
2023-02-25T19:34:49.197Z,1.97
2023-02-25T19:38:14.522Z,1.96
2023-02-25T19:41:39.764Z,1.9
2023-02-25T19:45:06.002Z,1.84
2023-02-25T19:48:30.384Z,1.77
2023-02-25T19:51:55.660Z,1.7
2023-02-25T19:55:20.974Z,1.64
2023-02-25T19:58:46.209Z,1.6
2023-02-25T20:02:11.559Z,1.51
2023-02-25T20:05:36.889Z,1.49
2023-02-25T20:09:02.152Z,1.48
2023-02-25T20:12:27.463Z,1.46
2023-02-25T20:15:52.704Z,1.46
2023-02-25T20:19:17.990Z,1.45
2023-02-25T20:22:43.257Z,1.38
2023-02-25T20:26:08.514Z,1.38
2023-02-25T20:29:33.879Z,1.35
2023-02-25T20:32:59.049Z,1.36
2023-02-25T20:36:24.582Z,1.39
2023-02-25T20:39:50.404Z,1.42
2023-02-25T20:43:15.660Z,1.47
2023-02-25T20:46:40.984Z,1.49
2023-02-25T20:50:06.251Z,1.45
2023-02-25T20:53:31.505Z,1.45
2023-02-25T20:56:56.766Z,1.5
2023-02-25T21:00:22.096Z,1.51
2023-02-25T21:03:47.452Z,1.5
2023-02-25T21:07:12.674Z,1.54
2023-02-25T21:10:37.952Z,1.55
2023-02-25T21:14:03.226Z,1.48
2023-02-25T21:17:28.509Z,1.45
2023-02-25T21:20:53.824Z,1.45
2023-02-25T21:24:19.087Z,1.45
2023-02-25T21:27:44.374Z,1.47
2023-02-25T21:31:09.789Z,1.44
2023-02-25T21:34:34.970Z,1.4
2023-02-25T21:38:00.349Z,1.31
2023-02-25T21:41:25.550Z,1.11
2023-02-25T21:44:50.827Z,1.03
2023-02-25T21:48:16.096Z,0.95
2023-02-25T21:51:41.389Z,0.87
2023-02-25T21:55:06.725Z,0.81
2023-02-25T21:58:31.973Z,0.83
2023-02-25T22:01:57.281Z,0.88
2023-02-25T22:05:22.559Z,0.91
2023-02-25T22:08:47.848Z,0.97
2023-02-25T22:12:13.134Z,0.99
2023-02-25T22:15:38.474Z,1.03
2023-02-25T22:19:03.686Z,1.11
2023-02-25T22:22:28.995Z,1.14
2023-02-25T22:25:54.281Z,1.09
2023-02-25T22:29:19.578Z,1.09
2023-02-25T22:32:44.835Z,1.08
2023-02-25T22:36:10.097Z,1.08
2023-02-25T22:39:35.352Z,1.14
2023-02-25T22:43:00.659Z,1.23
2023-02-25T22:46:26.398Z,1.16
2023-02-25T22:49:51.190Z,1.02
2023-02-25T22:53:16.456Z,0.99
2023-02-25T22:56:41.723Z,0.95
2023-02-25T23:00:06.972Z,0.94
2023-02-25T23:03:32.331Z,0.99
2023-02-25T23:06:57.589Z,1.14
2023-02-25T23:10:22.880Z,1.17
2023-02-25T23:13:48.137Z,1.23
2023-02-25T23:17:13.392Z,1.21
2023-02-25T23:20:38.708Z,1.14
2023-02-25T23:24:03.929Z,1.08
2023-02-25T23:27:29.207Z,1.07
2023-02-25T23:30:54.504Z,1.08
2023-02-25T23:34:19.820Z,1.1
2023-02-25T23:37:45.091Z,1.14
2023-02-25T23:41:10.313Z,1.17
2023-02-25T23:44:35.565Z,1.14
2023-02-25T23:48:00.835Z,1.17
2023-02-25T23:51:26.114Z,1.18
2023-02-25T23:54:51.457Z,1.21
2023-02-25T23:58:16.683Z,1.25
